sensor_id;sensor_type;location;lat;lon;timestamp;P1;durP1;ratioP1;P2;durP2;ratioP2
61393;SDS011;48555;50.952;-0.120;2022-12-29T00:01:35;16.40;;;2.97;;
61393;SDS011;48555;50.952;-0.120;2022-12-29T00:04:01;20.70;;;3.50;;
61393;SDS011;48555;50.952;-0.120;2022-12-29T00:06:27;21.95;;;3.65;;
61393;SDS011;48555;50.952;-0.120;2022-12-29T00:08:53;21.60;;;4.43;;
61393;SDS011;48555;50.952;-0.120;2022-12-29T00:11:20;15.32;;;3.25;;
61393;SDS011;48555;50.952;-0.120;2022-12-29T00:13:47;17.17;;;3.70;;
61393;SDS011;48555;50.952;-0.120;2022-12-29T00:16:33;19.23;;;4.13;;
61393;SDS011;48555;50.952;-0.120;2022-12-29T00:18:59;22.00;;;4.15;;
61393;SDS011;48555;50.952;-0.120;2022-12-29T00:21:25;22.13;;;3.47;;
61393;SDS011;48555;50.952;-0.120;2022-12-29T00:24:21;30.52;;;3.55;;
61393;SDS011;48555;50.952;-0.120;2022-12-29T00:27:04;18.75;;;3.42;;
61393;SDS011;48555;50.952;-0.120;2022-12-29T00:29:55;20.38;;;3.28;;
61393;SDS011;48555;50.952;-0.120;2022-12-29T00:32:40;17.33;;;3.30;;
61393;SDS011;48555;50.952;-0.120;2022-12-29T00:35:28;17.52;;;3.20;;
61393;SDS011;48555;50.952;-0.120;2022-12-29T00:37:59;16.58;;;3.08;;
61393;SDS011;48555;50.952;-0.120;2022-12-29T00:40:47;13.68;;;3.22;;
61393;SDS011;48555;50.952;-0.120;2022-12-29T00:43:31;15.10;;;3.00;;
61393;SDS011;48555;50.952;-0.120;2022-12-29T00:46:14;19.60;;;3.10;;
61393;SDS011;48555;50.952;-0.120;2022-12-29T00:48:40;19.15;;;3.58;;
61393;SDS011;48555;50.952;-0.120;2022-12-29T00:51:24;21.13;;;3.13;;
61393;SDS011;48555;50.952;-0.120;2022-12-29T00:53:49;15.63;;;2.95;;
61393;SDS011;48555;50.952;-0.120;2022-12-29T00:56:15;18.92;;;2.90;;
61393;SDS011;48555;50.952;-0.120;2022-12-29T00:58:40;17.80;;;3.38;;
61393;SDS011;48555;50.952;-0.120;2022-12-29T01:01:06;18.45;;;3.38;;
61393;SDS011;48555;50.952;-0.120;2022-12-29T01:03:34;17.48;;;3.47;;
61393;SDS011;48555;50.952;-0.120;2022-12-29T01:06:00;17.33;;;3.75;;
61393;SDS011;48555;50.952;-0.120;2022-12-29T01:08:27;14.18;;;2.58;;
61393;SDS011;48555;50.952;-0.120;2022-12-29T01:11:00;19.08;;;2.75;;
61393;SDS011;48555;50.952;-0.120;2022-12-29T01:13:26;17.98;;;3.45;;
61393;SDS011;48555;50.952;-0.120;2022-12-29T01:15:52;18.65;;;3.30;;
61393;SDS011;48555;50.952;-0.120;2022-12-29T01:18:18;17.73;;;4.15;;
61393;SDS011;48555;50.952;-0.120;2022-12-29T01:20:44;19.08;;;3.13;;
61393;SDS011;48555;50.952;-0.120;2022-12-29T01:23:09;21.70;;;3.60;;
61393;SDS011;48555;50.952;-0.120;2022-12-29T01:25:35;19.67;;;2.85;;
61393;SDS011;48555;50.952;-0.120;2022-12-29T01:28:00;19.85;;;4.10;;
61393;SDS011;48555;50.952;-0.120;2022-12-29T01:30:25;19.23;;;2.97;;
61393;SDS011;48555;50.952;-0.120;2022-12-29T01:32:51;16.27;;;3.33;;
61393;SDS011;48555;50.952;-0.120;2022-12-29T01:35:16;24.33;;;3.75;;
61393;SDS011;48555;50.952;-0.120;2022-12-29T01:37:42;19.20;;;3.75;;
61393;SDS011;48555;50.952;-0.120;2022-12-29T01:40:07;18.88;;;3.35;;
61393;SDS011;48555;50.952;-0.120;2022-12-29T01:42:33;25.73;;;4.20;;
61393;SDS011;48555;50.952;-0.120;2022-12-29T01:45:02;22.50;;;3.80;;
61393;SDS011;48555;50.952;-0.120;2022-12-29T01:50:00;20.35;;;4.20;;
61393;SDS011;48555;50.952;-0.120;2022-12-29T01:52:30;26.00;;;4.32;;
61393;SDS011;48555;50.952;-0.120;2022-12-29T01:54:58;16.05;;;3.08;;
61393;SDS011;48555;50.952;-0.120;2022-12-29T01:57:29;19.40;;;3.25;;
61393;SDS011;48555;50.952;-0.120;2022-12-29T01:59:58;17.63;;;2.92;;
61393;SDS011;48555;50.952;-0.120;2022-12-29T02:02:30;18.83;;;2.88;;
61393;SDS011;48555;50.952;-0.120;2022-12-29T02:04:57;18.75;;;4.07;;
61393;SDS011;48555;50.952;-0.120;2022-12-29T02:07:24;22.63;;;4.30;;
61393;SDS011;48555;50.952;-0.120;2022-12-29T02:09:52;22.75;;;4.10;;
61393;SDS011;48555;50.952;-0.120;2022-12-29T02:12:20;21.17;;;4.30;;
61393;SDS011;48555;50.952;-0.120;2022-12-29T02:14:48;26.98;;;3.75;;
61393;SDS011;48555;50.952;-0.120;2022-12-29T02:25:52;18.95;;;4.20;;
61393;SDS011;48555;50.952;-0.120;2022-12-29T02:28:39;21.42;;;4.00;;
61393;SDS011;48555;50.952;-0.120;2022-12-29T02:31:16;23.00;;;3.53;;
61393;SDS011;48555;50.952;-0.120;2022-12-29T02:33:56;20.50;;;3.55;;
61393;SDS011;48555;50.952;-0.120;2022-12-29T02:50:41;24.67;;;3.58;;
61393;SDS011;48555;50.952;-0.120;2022-12-29T02:53:11;20.70;;;3.80;;
61393;SDS011;48555;50.952;-0.120;2022-12-29T02:55:46;17.27;;;2.70;;
61393;SDS011;48555;50.952;-0.120;2022-12-29T02:58:16;18.85;;;3.15;;
61393;SDS011;48555;50.952;-0.120;2022-12-29T03:01:04;15.43;;;2.95;;
61393;SDS011;48555;50.952;-0.120;2022-12-29T03:11:48;11.95;;;2.97;;
61393;SDS011;48555;50.952;-0.120;2022-12-29T03:14:49;22.35;;;3.95;;
61393;SDS011;48555;50.952;-0.120;2022-12-29T03:20:26;27.75;;;4.07;;
61393;SDS011;48555;50.952;-0.120;2022-12-29T03:23:08;21.92;;;4.07;;
61393;SDS011;48555;50.952;-0.120;2022-12-29T03:25:36;23.73;;;4.32;;
61393;SDS011;48555;50.952;-0.120;2022-12-29T03:28:07;24.25;;;4.25;;
61393;SDS011;48555;50.952;-0.120;2022-12-29T03:30:36;26.60;;;4.13;;
61393;SDS011;48555;50.952;-0.120;2022-12-29T03:33:05;22.98;;;4.40;;
61393;SDS011;48555;50.952;-0.120;2022-12-29T03:35:35;27.95;;;4.05;;
61393;SDS011;48555;50.952;-0.120;2022-12-29T03:40:44;31.20;;;5.07;;
61393;SDS011;48555;50.952;-0.120;2022-12-29T03:43:13;17.70;;;3.67;;
61393;SDS011;48555;50.952;-0.120;2022-12-29T03:45:40;24.40;;;4.40;;
61393;SDS011;48555;50.952;-0.120;2022-12-29T03:48:06;24.30;;;4.18;;
61393;SDS011;48555;50.952;-0.120;2022-12-29T03:50:31;20.27;;;3.53;;
61393;SDS011;48555;50.952;-0.120;2022-12-29T03:52:57;23.35;;;3.63;;
61393;SDS011;48555;50.952;-0.120;2022-12-29T03:55:22;29.05;;;4.75;;
61393;SDS011;48555;50.952;-0.120;2022-12-29T03:57:47;25.80;;;4.40;;
61393;SDS011;48555;50.952;-0.120;2022-12-29T04:00:13;23.15;;;4.90;;
61393;SDS011;48555;50.952;-0.120;2022-12-29T04:02:38;20.73;;;3.97;;
61393;SDS011;48555;50.952;-0.120;2022-12-29T04:05:04;23.95;;;4.38;;
61393;SDS011;48555;50.952;-0.120;2022-12-29T04:07:30;23.48;;;4.25;;
61393;SDS011;48555;50.952;-0.120;2022-12-29T04:09:55;22.25;;;3.72;;
61393;SDS011;48555;50.952;-0.120;2022-12-29T04:12:21;19.30;;;3.75;;
61393;SDS011;48555;50.952;-0.120;2022-12-29T04:14:46;19.85;;;4.32;;
61393;SDS011;48555;50.952;-0.120;2022-12-29T04:17:11;18.13;;;4.32;;
61393;SDS011;48555;50.952;-0.120;2022-12-29T04:19:37;26.02;;;4.47;;
61393;SDS011;48555;50.952;-0.120;2022-12-29T04:22:03;20.13;;;3.92;;
61393;SDS011;48555;50.952;-0.120;2022-12-29T04:24:28;19.63;;;4.38;;
61393;SDS011;48555;50.952;-0.120;2022-12-29T04:26:54;19.08;;;3.78;;
61393;SDS011;48555;50.952;-0.120;2022-12-29T04:29:19;17.90;;;3.30;;
61393;SDS011;48555;50.952;-0.120;2022-12-29T04:31:45;21.08;;;4.88;;
61393;SDS011;48555;50.952;-0.120;2022-12-29T04:34:10;21.05;;;3.55;;
61393;SDS011;48555;50.952;-0.120;2022-12-29T04:36:35;18.05;;;3.17;;
61393;SDS011;48555;50.952;-0.120;2022-12-29T04:39:01;31.70;;;5.95;;
61393;SDS011;48555;50.952;-0.120;2022-12-29T04:41:26;20.52;;;5.10;;
61393;SDS011;48555;50.952;-0.120;2022-12-29T04:43:52;22.35;;;5.43;;
61393;SDS011;48555;50.952;-0.120;2022-12-29T04:46:17;23.67;;;4.15;;
61393;SDS011;48555;50.952;-0.120;2022-12-29T04:48:43;21.30;;;3.90;;
61393;SDS011;48555;50.952;-0.120;2022-12-29T04:51:08;14.48;;;3.35;;
61393;SDS011;48555;50.952;-0.120;2022-12-29T04:53:34;22.60;;;3.83;;
61393;SDS011;48555;50.952;-0.120;2022-12-29T04:55:59;20.95;;;3.45;;
61393;SDS011;48555;50.952;-0.120;2022-12-29T04:58:25;25.40;;;4.72;;
61393;SDS011;48555;50.952;-0.120;2022-12-29T05:00:50;29.85;;;4.55;;
61393;SDS011;48555;50.952;-0.120;2022-12-29T05:03:16;29.23;;;5.38;;
61393;SDS011;48555;50.952;-0.120;2022-12-29T05:05:42;22.60;;;3.75;;
61393;SDS011;48555;50.952;-0.120;2022-12-29T05:08:07;35.92;;;5.72;;
61393;SDS011;48555;50.952;-0.120;2022-12-29T05:10:33;28.42;;;4.63;;
61393;SDS011;48555;50.952;-0.120;2022-12-29T05:12:58;26.48;;;3.88;;
61393;SDS011;48555;50.952;-0.120;2022-12-29T05:15:23;30.05;;;4.72;;
61393;SDS011;48555;50.952;-0.120;2022-12-29T05:17:49;28.52;;;5.18;;
61393;SDS011;48555;50.952;-0.120;2022-12-29T05:20:15;29.77;;;4.57;;
61393;SDS011;48555;50.952;-0.120;2022-12-29T05:22:41;25.65;;;4.15;;
61393;SDS011;48555;50.952;-0.120;2022-12-29T05:25:06;31.95;;;4.88;;
61393;SDS011;48555;50.952;-0.120;2022-12-29T05:27:32;24.73;;;3.72;;
61393;SDS011;48555;50.952;-0.120;2022-12-29T05:29:57;22.92;;;3.60;;
61393;SDS011;48555;50.952;-0.120;2022-12-29T05:32:23;26.30;;;4.05;;
61393;SDS011;48555;50.952;-0.120;2022-12-29T05:34:48;26.20;;;4.57;;
61393;SDS011;48555;50.952;-0.120;2022-12-29T05:37:14;24.60;;;4.05;;
61393;SDS011;48555;50.952;-0.120;2022-12-29T05:39:40;21.02;;;4.32;;
61393;SDS011;48555;50.952;-0.120;2022-12-29T05:42:05;20.95;;;3.50;;
61393;SDS011;48555;50.952;-0.120;2022-12-29T05:44:30;22.27;;;3.85;;
61393;SDS011;48555;50.952;-0.120;2022-12-29T05:46:56;26.23;;;4.13;;
61393;SDS011;48555;50.952;-0.120;2022-12-29T05:49:21;19.75;;;3.40;;
61393;SDS011;48555;50.952;-0.120;2022-12-29T05:51:46;20.80;;;3.78;;
61393;SDS011;48555;50.952;-0.120;2022-12-29T05:54:12;18.77;;;3.28;;
61393;SDS011;48555;50.952;-0.120;2022-12-29T05:56:37;18.67;;;3.53;;
61393;SDS011;48555;50.952;-0.120;2022-12-29T05:59:02;20.83;;;2.97;;
61393;SDS011;48555;50.952;-0.120;2022-12-29T06:01:28;18.83;;;3.47;;
61393;SDS011;48555;50.952;-0.120;2022-12-29T06:03:53;19.05;;;3.53;;
61393;SDS011;48555;50.952;-0.120;2022-12-29T06:06:19;17.25;;;3.10;;
61393;SDS011;48555;50.952;-0.120;2022-12-29T06:08:44;14.55;;;3.20;;
61393;SDS011;48555;50.952;-0.120;2022-12-29T06:11:10;15.82;;;2.78;;
61393;SDS011;48555;50.952;-0.120;2022-12-29T06:13:35;14.02;;;2.70;;
61393;SDS011;48555;50.952;-0.120;2022-12-29T06:16:01;10.98;;;2.55;;
61393;SDS011;48555;50.952;-0.120;2022-12-29T06:18:26;14.07;;;2.92;;
61393;SDS011;48555;50.952;-0.120;2022-12-29T06:20:52;10.40;;;2.42;;
61393;SDS011;48555;50.952;-0.120;2022-12-29T06:23:17;13.95;;;2.72;;
61393;SDS011;48555;50.952;-0.120;2022-12-29T06:25:43;12.75;;;2.80;;
61393;SDS011;48555;50.952;-0.120;2022-12-29T06:28:08;11.30;;;2.47;;
61393;SDS011;48555;50.952;-0.120;2022-12-29T06:30:35;16.25;;;2.03;;
61393;SDS011;48555;50.952;-0.120;2022-12-29T06:33:01;16.00;;;2.38;;
61393;SDS011;48555;50.952;-0.120;2022-12-29T06:35:26;8.57;;;2.22;;
61393;SDS011;48555;50.952;-0.120;2022-12-29T06:37:51;10.35;;;2.30;;
61393;SDS011;48555;50.952;-0.120;2022-12-29T06:40:17;13.77;;;2.65;;
61393;SDS011;48555;50.952;-0.120;2022-12-29T06:42:42;9.85;;;2.30;;
61393;SDS011;48555;50.952;-0.120;2022-12-29T06:45:08;11.40;;;2.95;;
61393;SDS011;48555;50.952;-0.120;2022-12-29T06:47:34;10.43;;;2.25;;
61393;SDS011;48555;50.952;-0.120;2022-12-29T06:49:59;11.98;;;2.00;;
61393;SDS011;48555;50.952;-0.120;2022-12-29T06:52:25;10.20;;;1.75;;
61393;SDS011;48555;50.952;-0.120;2022-12-29T06:54:51;9.27;;;1.70;;
61393;SDS011;48555;50.952;-0.120;2022-12-29T06:57:16;7.97;;;1.60;;
61393;SDS011;48555;50.952;-0.120;2022-12-29T06:59:42;6.78;;;1.20;;
61393;SDS011;48555;50.952;-0.120;2022-12-29T07:02:09;7.30;;;2.10;;
61393;SDS011;48555;50.952;-0.120;2022-12-29T07:04:35;7.45;;;1.13;;
61393;SDS011;48555;50.952;-0.120;2022-12-29T07:07:00;6.13;;;1.30;;
61393;SDS011;48555;50.952;-0.120;2022-12-29T07:09:26;4.18;;;0.82;;
61393;SDS011;48555;50.952;-0.120;2022-12-29T07:11:51;7.25;;;1.35;;
61393;SDS011;48555;50.952;-0.120;2022-12-29T07:14:16;4.80;;;1.33;;
61393;SDS011;48555;50.952;-0.120;2022-12-29T07:16:42;4.65;;;1.27;;
61393;SDS011;48555;50.952;-0.120;2022-12-29T07:19:07;2.75;;;0.80;;
61393;SDS011;48555;50.952;-0.120;2022-12-29T07:21:32;4.38;;;1.08;;
61393;SDS011;48555;50.952;-0.120;2022-12-29T07:23:58;4.20;;;1.20;;
61393;SDS011;48555;50.952;-0.120;2022-12-29T07:26:23;5.65;;;1.33;;
61393;SDS011;48555;50.952;-0.120;2022-12-29T07:28:49;4.30;;;1.08;;
61393;SDS011;48555;50.952;-0.120;2022-12-29T07:31:15;5.15;;;1.08;;
61393;SDS011;48555;50.952;-0.120;2022-12-29T07:33:45;6.22;;;1.30;;
61393;SDS011;48555;50.952;-0.120;2022-12-29T07:36:11;5.40;;;1.10;;
61393;SDS011;48555;50.952;-0.120;2022-12-29T07:38:37;6.70;;;0.93;;
61393;SDS011;48555;50.952;-0.120;2022-12-29T07:41:03;5.32;;;1.30;;
61393;SDS011;48555;50.952;-0.120;2022-12-29T07:43:28;8.02;;;1.15;;
61393;SDS011;48555;50.952;-0.120;2022-12-29T07:45:54;3.67;;;0.80;;
61393;SDS011;48555;50.952;-0.120;2022-12-29T07:48:19;6.18;;;1.20;;
61393;SDS011;48555;50.952;-0.120;2022-12-29T07:50:44;4.38;;;0.90;;
61393;SDS011;48555;50.952;-0.120;2022-12-29T07:53:10;5.10;;;0.95;;
61393;SDS011;48555;50.952;-0.120;2022-12-29T07:55:35;5.18;;;1.27;;
61393;SDS011;48555;50.952;-0.120;2022-12-29T07:58:01;6.20;;;1.10;;
61393;SDS011;48555;50.952;-0.120;2022-12-29T08:00:26;8.20;;;1.67;;
61393;SDS011;48555;50.952;-0.120;2022-12-29T08:02:52;5.95;;;1.48;;
61393;SDS011;48555;50.952;-0.120;2022-12-29T08:05:17;6.50;;;1.63;;
61393;SDS011;48555;50.952;-0.120;2022-12-29T08:07:43;7.00;;;1.40;;
61393;SDS011;48555;50.952;-0.120;2022-12-29T08:10:09;10.60;;;1.80;;
61393;SDS011;48555;50.952;-0.120;2022-12-29T08:12:37;4.88;;;1.42;;
61393;SDS011;48555;50.952;-0.120;2022-12-29T08:15:03;8.10;;;1.88;;
61393;SDS011;48555;50.952;-0.120;2022-12-29T08:17:29;7.97;;;1.38;;
61393;SDS011;48555;50.952;-0.120;2022-12-29T08:19:54;5.82;;;1.38;;
61393;SDS011;48555;50.952;-0.120;2022-12-29T08:22:20;6.60;;;1.27;;
61393;SDS011;48555;50.952;-0.120;2022-12-29T08:24:45;6.85;;;1.27;;
61393;SDS011;48555;50.952;-0.120;2022-12-29T08:27:10;9.27;;;1.63;;
61393;SDS011;48555;50.952;-0.120;2022-12-29T08:29:36;8.20;;;1.63;;
61393;SDS011;48555;50.952;-0.120;2022-12-29T08:32:01;6.93;;;1.70;;
61393;SDS011;48555;50.952;-0.120;2022-12-29T08:34:26;6.57;;;1.52;;
61393;SDS011;48555;50.952;-0.120;2022-12-29T08:36:52;9.15;;;1.77;;
61393;SDS011;48555;50.952;-0.120;2022-12-29T08:39:17;5.45;;;1.45;;
61393;SDS011;48555;50.952;-0.120;2022-12-29T08:41:43;7.82;;;1.67;;
61393;SDS011;48555;50.952;-0.120;2022-12-29T08:44:08;8.02;;;1.77;;
61393;SDS011;48555;50.952;-0.120;2022-12-29T08:46:36;10.18;;;1.77;;
61393;SDS011;48555;50.952;-0.120;2022-12-29T08:49:02;7.78;;;1.95;;
61393;SDS011;48555;50.952;-0.120;2022-12-29T08:51:27;8.38;;;2.00;;
61393;SDS011;48555;50.952;-0.120;2022-12-29T08:53:52;7.60;;;1.85;;
61393;SDS011;48555;50.952;-0.120;2022-12-29T08:56:18;7.30;;;1.52;;
61393;SDS011;48555;50.952;-0.120;2022-12-29T08:58:43;11.00;;;2.20;;
61393;SDS011;48555;50.952;-0.120;2022-12-29T09:01:09;13.60;;;2.25;;
61393;SDS011;48555;50.952;-0.120;2022-12-29T09:03:35;14.68;;;2.60;;
61393;SDS011;48555;50.952;-0.120;2022-12-29T09:06:00;11.50;;;2.00;;
61393;SDS011;48555;50.952;-0.120;2022-12-29T09:08:26;13.30;;;2.30;;
61393;SDS011;48555;50.952;-0.120;2022-12-29T09:10:51;10.93;;;2.60;;
61393;SDS011;48555;50.952;-0.120;2022-12-29T09:13:17;11.05;;;2.20;;
61393;SDS011;48555;50.952;-0.120;2022-12-29T09:15:42;12.05;;;2.72;;
61393;SDS011;48555;50.952;-0.120;2022-12-29T09:18:08;10.05;;;2.35;;
61393;SDS011;48555;50.952;-0.120;2022-12-29T09:20:34;10.75;;;2.13;;
61393;SDS011;48555;50.952;-0.120;2022-12-29T09:23:00;13.60;;;2.83;;
61393;SDS011;48555;50.952;-0.120;2022-12-29T09:25:25;13.02;;;2.25;;
61393;SDS011;48555;50.952;-0.120;2022-12-29T09:27:51;9.68;;;1.88;;
61393;SDS011;48555;50.952;-0.120;2022-12-29T09:30:20;8.07;;;1.85;;
61393;SDS011;48555;50.952;-0.120;2022-12-29T09:32:47;10.43;;;1.98;;
61393;SDS011;48555;50.952;-0.120;2022-12-29T09:35:15;9.98;;;2.35;;
61393;SDS011;48555;50.952;-0.120;2022-12-29T09:37:41;11.15;;;2.15;;
61393;SDS011;48555;50.952;-0.120;2022-12-29T09:40:09;9.82;;;2.22;;
61393;SDS011;48555;50.952;-0.120;2022-12-29T09:43:03;8.82;;;1.63;;
61393;SDS011;48555;50.952;-0.120;2022-12-29T09:46:04;11.52;;;1.92;;
61393;SDS011;48555;50.952;-0.120;2022-12-29T09:48:27;10.25;;;1.90;;
61393;SDS011;48555;50.952;-0.120;2022-12-29T09:50:58;9.18;;;1.65;;
61393;SDS011;48555;50.952;-0.120;2022-12-29T09:53:29;6.60;;;1.42;;
61393;SDS011;48555;50.952;-0.120;2022-12-29T09:56:01;6.30;;;1.60;;
61393;SDS011;48555;50.952;-0.120;2022-12-29T09:59:02;6.47;;;1.38;;
61393;SDS011;48555;50.952;-0.120;2022-12-29T10:01:33;7.85;;;1.75;;
61393;SDS011;48555;50.952;-0.120;2022-12-29T10:04:06;6.47;;;1.33;;
61393;SDS011;48555;50.952;-0.120;2022-12-29T10:17:58;6.28;;;1.52;;
61393;SDS011;48555;50.952;-0.120;2022-12-29T10:23:45;5.38;;;1.13;;
61393;SDS011;48555;50.952;-0.120;2022-12-29T10:26:17;6.72;;;1.73;;
61393;SDS011;48555;50.952;-0.120;2022-12-29T10:29:05;10.05;;;1.48;;
61393;SDS011;48555;50.952;-0.120;2022-12-29T10:31:43;4.35;;;1.15;;
61393;SDS011;48555;50.952;-0.120;2022-12-29T10:34:31;6.00;;;1.05;;
61393;SDS011;48555;50.952;-0.120;2022-12-29T10:37:04;6.15;;;1.38;;
61393;SDS011;48555;50.952;-0.120;2022-12-29T10:39:38;8.35;;;1.70;;
61393;SDS011;48555;50.952;-0.120;2022-12-29T10:42:25;6.28;;;1.45;;
61393;SDS011;48555;50.952;-0.120;2022-12-29T10:44:55;4.80;;;1.27;;
61393;SDS011;48555;50.952;-0.120;2022-12-29T10:47:23;3.20;;;0.90;;
61393;SDS011;48555;50.952;-0.120;2022-12-29T10:49:52;6.23;;;1.37;;
61393;SDS011;48555;50.952;-0.120;2022-12-29T10:52:19;6.82;;;1.30;;
61393;SDS011;48555;50.952;-0.120;2022-12-29T10:55:03;3.83;;;1.02;;
61393;SDS011;48555;50.952;-0.120;2022-12-29T10:57:43;3.80;;;1.17;;
61393;SDS011;48555;50.952;-0.120;2022-12-29T11:00:13;8.52;;;1.38;;
61393;SDS011;48555;50.952;-0.120;2022-12-29T11:07:58;6.38;;;1.50;;
61393;SDS011;48555;50.952;-0.120;2022-12-29T11:13:04;5.22;;;1.10;;
61393;SDS011;48555;50.952;-0.120;2022-12-29T11:20:43;4.53;;;1.05;;
61393;SDS011;48555;50.952;-0.120;2022-12-29T11:23:21;6.97;;;1.30;;
61393;SDS011;48555;50.952;-0.120;2022-12-29T11:26:06;7.00;;;1.27;;
61393;SDS011;48555;50.952;-0.120;2022-12-29T11:28:31;7.97;;;1.50;;
61393;SDS011;48555;50.952;-0.120;2022-12-29T11:31:02;6.82;;;1.50;;
61393;SDS011;48555;50.952;-0.120;2022-12-29T11:33:29;6.93;;;1.63;;
61393;SDS011;48555;50.952;-0.120;2022-12-29T11:38:42;7.47;;;1.50;;
61393;SDS011;48555;50.952;-0.120;2022-12-29T11:41:18;7.65;;;1.73;;
61393;SDS011;48555;50.952;-0.120;2022-12-29T11:43:47;6.32;;;1.17;;
61393;SDS011;48555;50.952;-0.120;2022-12-29T11:46:20;8.60;;;1.80;;
61393;SDS011;48555;50.952;-0.120;2022-12-29T11:49:08;5.93;;;1.42;;
61393;SDS011;48555;50.952;-0.120;2022-12-29T11:51:44;7.80;;;1.42;;
61393;SDS011;48555;50.952;-0.120;2022-12-29T11:54:17;5.32;;;1.15;;
61393;SDS011;48555;50.952;-0.120;2022-12-29T11:56:47;7.65;;;1.95;;
61393;SDS011;48555;50.952;-0.120;2022-12-29T11:59:55;7.25;;;1.75;;
61393;SDS011;48555;50.952;-0.120;2022-12-29T12:02:11;9.95;;;1.63;;
61393;SDS011;48555;50.952;-0.120;2022-12-29T12:07:18;7.03;;;1.98;;
61393;SDS011;48555;50.952;-0.120;2022-12-29T12:09:58;9.70;;;1.90;;
61393;SDS011;48555;50.952;-0.120;2022-12-29T12:15:31;10.40;;;2.00;;
61393;SDS011;48555;50.952;-0.120;2022-12-29T12:21:32;9.23;;;1.75;;
61393;SDS011;48555;50.952;-0.120;2022-12-29T12:24:20;7.37;;;1.93;;
61393;SDS011;48555;50.952;-0.120;2022-12-29T12:29:38;9.05;;;1.90;;
61393;SDS011;48555;50.952;-0.120;2022-12-29T12:32:16;11.25;;;1.92;;
61393;SDS011;48555;50.952;-0.120;2022-12-29T12:34:46;8.48;;;1.67;;
61393;SDS011;48555;50.952;-0.120;2022-12-29T12:53:35;6.72;;;1.50;;
61393;SDS011;48555;50.952;-0.120;2022-12-29T12:59:13;9.50;;;1.73;;
61393;SDS011;48555;50.952;-0.120;2022-12-29T13:01:47;7.03;;;1.65;;
61393;SDS011;48555;50.952;-0.120;2022-12-29T13:19:30;11.15;;;1.98;;
61393;SDS011;48555;50.952;-0.120;2022-12-29T13:36:04;11.40;;;2.25;;
61393;SDS011;48555;50.952;-0.120;2022-12-29T13:43:54;11.27;;;2.03;;
61393;SDS011;48555;50.952;-0.120;2022-12-29T13:46:24;14.20;;;2.67;;
61393;SDS011;48555;50.952;-0.120;2022-12-29T13:49:01;10.93;;;2.50;;
61393;SDS011;48555;50.952;-0.120;2022-12-29T13:51:33;11.13;;;2.50;;
61393;SDS011;48555;50.952;-0.120;2022-12-29T13:57:05;14.95;;;2.80;;
61393;SDS011;48555;50.952;-0.120;2022-12-29T13:59:52;12.48;;;3.17;;
61393;SDS011;48555;50.952;-0.120;2022-12-29T14:07:45;10.75;;;2.42;;
61393;SDS011;48555;50.952;-0.120;2022-12-29T14:10:34;11.45;;;2.80;;
61393;SDS011;48555;50.952;-0.120;2022-12-29T14:13:03;12.07;;;2.53;;
61393;SDS011;48555;50.952;-0.120;2022-12-29T14:15:29;10.95;;;2.20;;
61393;SDS011;48555;50.952;-0.120;2022-12-29T14:18:00;12.68;;;2.15;;
61393;SDS011;48555;50.952;-0.120;2022-12-29T14:20:49;10.18;;;2.22;;
61393;SDS011;48555;50.952;-0.120;2022-12-29T14:26:10;9.32;;;2.17;;
61393;SDS011;48555;50.952;-0.120;2022-12-29T14:28:38;9.05;;;2.08;;
61393;SDS011;48555;50.952;-0.120;2022-12-29T14:31:32;9.15;;;2.10;;
61393;SDS011;48555;50.952;-0.120;2022-12-29T14:36:34;10.50;;;2.30;;
61393;SDS011;48555;50.952;-0.120;2022-12-29T14:39:03;10.50;;;2.30;;
61393;SDS011;48555;50.952;-0.120;2022-12-29T14:41:59;11.70;;;2.10;;
61393;SDS011;48555;50.952;-0.120;2022-12-29T14:47:22;12.65;;;2.17;;
61393;SDS011;48555;50.952;-0.120;2022-12-29T14:50:02;9.23;;;2.22;;
61393;SDS011;48555;50.952;-0.120;2022-12-29T14:52:28;9.43;;;2.60;;
61393;SDS011;48555;50.952;-0.120;2022-12-29T14:57:43;11.30;;;1.98;;
61393;SDS011;48555;50.952;-0.120;2022-12-29T15:00:21;7.25;;;1.90;;
61393;SDS011;48555;50.952;-0.120;2022-12-29T15:03:01;10.35;;;1.88;;
61393;SDS011;48555;50.952;-0.120;2022-12-29T15:05:48;9.10;;;2.20;;
61393;SDS011;48555;50.952;-0.120;2022-12-29T15:08:18;12.07;;;2.63;;
61393;SDS011;48555;50.952;-0.120;2022-12-29T15:10:52;8.85;;;2.20;;
61393;SDS011;48555;50.952;-0.120;2022-12-29T15:13:36;12.88;;;2.22;;
61393;SDS011;48555;50.952;-0.120;2022-12-29T15:16:04;12.38;;;2.50;;
61393;SDS011;48555;50.952;-0.120;2022-12-29T15:18:30;10.98;;;2.72;;
61393;SDS011;48555;50.952;-0.120;2022-12-29T15:21:02;13.95;;;2.42;;
61393;SDS011;48555;50.952;-0.120;2022-12-29T15:23:30;10.57;;;2.00;;
61393;SDS011;48555;50.952;-0.120;2022-12-29T15:25:58;9.65;;;2.10;;
61393;SDS011;48555;50.952;-0.120;2022-12-29T15:28:37;15.23;;;2.10;;
61393;SDS011;48555;50.952;-0.120;2022-12-29T15:31:03;10.10;;;2.35;;
61393;SDS011;48555;50.952;-0.120;2022-12-29T15:33:30;6.90;;;1.73;;
61393;SDS011;48555;50.952;-0.120;2022-12-29T15:35:57;10.45;;;1.90;;
61393;SDS011;48555;50.952;-0.120;2022-12-29T15:38:29;10.68;;;2.03;;
61393;SDS011;48555;50.952;-0.120;2022-12-29T15:41:00;10.00;;;2.10;;
61393;SDS011;48555;50.952;-0.120;2022-12-29T15:46:01;6.55;;;1.90;;
61393;SDS011;48555;50.952;-0.120;2022-12-29T15:48:27;10.93;;;1.88;;
61393;SDS011;48555;50.952;-0.120;2022-12-29T15:50:53;9.23;;;2.10;;
61393;SDS011;48555;50.952;-0.120;2022-12-29T15:53:23;8.82;;;2.08;;
61393;SDS011;48555;50.952;-0.120;2022-12-29T15:55:53;12.73;;;2.30;;
61393;SDS011;48555;50.952;-0.120;2022-12-29T15:58:28;11.77;;;2.55;;
61393;SDS011;48555;50.952;-0.120;2022-12-29T16:00:56;14.10;;;2.45;;
61393;SDS011;48555;50.952;-0.120;2022-12-29T16:03:24;10.90;;;2.97;;
61393;SDS011;48555;50.952;-0.120;2022-12-29T16:05:52;9.15;;;2.63;;
61393;SDS011;48555;50.952;-0.120;2022-12-29T16:08:32;12.68;;;2.75;;
61393;SDS011;48555;50.952;-0.120;2022-12-29T16:11:02;9.20;;;2.40;;
61393;SDS011;48555;50.952;-0.120;2022-12-29T16:13:33;17.08;;;2.85;;
61393;SDS011;48555;50.952;-0.120;2022-12-29T16:16:07;10.80;;;2.47;;
61393;SDS011;48555;50.952;-0.120;2022-12-29T16:18:38;9.55;;;2.60;;
61393;SDS011;48555;50.952;-0.120;2022-12-29T16:21:04;12.13;;;2.50;;
61393;SDS011;48555;50.952;-0.120;2022-12-29T16:23:40;12.73;;;2.42;;
61393;SDS011;48555;50.952;-0.120;2022-12-29T16:26:16;8.70;;;2.03;;
61393;SDS011;48555;50.952;-0.120;2022-12-29T16:28:43;11.13;;;2.63;;
61393;SDS011;48555;50.952;-0.120;2022-12-29T16:31:25;8.05;;;2.25;;
61393;SDS011;48555;50.952;-0.120;2022-12-29T16:33:57;11.52;;;2.30;;
61393;SDS011;48555;50.952;-0.120;2022-12-29T16:39:31;11.88;;;2.45;;
61393;SDS011;48555;50.952;-0.120;2022-12-29T16:41:57;10.20;;;2.30;;
61393;SDS011;48555;50.952;-0.120;2022-12-29T16:44:27;10.85;;;2.53;;
61393;SDS011;48555;50.952;-0.120;2022-12-29T16:49:22;10.77;;;2.63;;
61393;SDS011;48555;50.952;-0.120;2022-12-29T16:51:48;15.30;;;2.25;;
61393;SDS011;48555;50.952;-0.120;2022-12-29T16:54:19;11.35;;;2.72;;
61393;SDS011;48555;50.952;-0.120;2022-12-29T16:56:48;9.40;;;2.17;;
61393;SDS011;48555;50.952;-0.120;2022-12-29T17:02:00;12.07;;;2.78;;
61393;SDS011;48555;50.952;-0.120;2022-12-29T17:04:30;14.10;;;3.42;;
61393;SDS011;48555;50.952;-0.120;2022-12-29T17:06:56;11.05;;;2.70;;
61393;SDS011;48555;50.952;-0.120;2022-12-29T17:09:22;15.35;;;3.20;;
61393;SDS011;48555;50.952;-0.120;2022-12-29T17:11:52;15.33;;;3.03;;
61393;SDS011;48555;50.952;-0.120;2022-12-29T17:17:01;10.87;;;2.70;;
61393;SDS011;48555;50.952;-0.120;2022-12-29T17:19:29;9.77;;;2.58;;
61393;SDS011;48555;50.952;-0.120;2022-12-29T17:21:57;10.55;;;2.33;;
61393;SDS011;48555;50.952;-0.120;2022-12-29T17:24:23;11.48;;;2.83;;
61393;SDS011;48555;50.952;-0.120;2022-12-29T17:26:49;11.95;;;2.67;;
61393;SDS011;48555;50.952;-0.120;2022-12-29T17:29:33;15.32;;;2.70;;